Time;durP1;ratioP1;P1;durP2;ratioP2;P2;SDS_P1;SDS_P2;PMS_P1;PMS_P2;Temp;Humidity;BMP_temperature;BMP_pressure;BME280_temperature;BME280_humidity;BME280_pressure;Samples;Min_cycle;Max_cycle;Signal;HPM_P1;HPM_P2
2023/12/08 00:01:10;;;;;;;6.32;4.45;;;;;;;4.93;58.56;96465.38;4913216;28;20326;-80
2023/12/08 00:03:35;;;;;;;5.30;3.88;;;;;;;4.91;59.50;96451.94;4903198;28;20653;-81
2023/12/08 00:06:01;;;;;;;6.78;4.20;;;;;;;4.88;58.85;96454.94;4902702;28;20182;-81
2023/12/08 00:08:26;;;;;;;10.98;5.10;;;;;;;4.88;58.78;96448.03;4873092;28;20197;-80
2023/12/08 00:10:52;;;;;;;6.93;4.18;;;;;;;4.90;59.04;96449.56;4872097;28;20594;-80
2023/12/08 00:13:17;;;;;;;6.35;4.05;;;;;;;4.95;59.09;96445.31;4913570;28;20360;-81
2023/12/08 00:15:42;;;;;;;7.45;4.25;;;;;;;4.94;59.18;96451.47;4893277;28;20230;-81
2023/12/08 00:18:08;;;;;;;6.60;4.22;;;;;;;4.95;59.37;96447.91;4920738;28;20277;-81
2023/12/08 00:20:33;;;;;;;6.35;4.47;;;;;;;4.92;58.90;96448.34;4919852;28;20575;-83
2023/12/08 00:22:58;;;;;;;4.55;3.47;;;;;;;4.95;59.48;96450.47;4908245;28;20260;-81
2023/12/08 00:25:24;;;;;;;5.43;3.47;;;;;;;4.96;59.13;96452.03;4873144;28;20235;-81
2023/12/08 00:27:49;;;;;;;4.85;3.53;;;;;;;4.95;58.70;96447.91;4873981;28;20708;-82
2023/12/08 00:30:15;;;;;;;5.00;3.15;;;;;;;4.99;58.93;96455.97;4926979;28;20194;-82
2023/12/08 00:32:40;;;;;;;6.25;3.97;;;;;;;4.93;58.72;96449.91;4891304;28;20229;-82
2023/12/08 00:35:07;;;;;;;6.65;3.90;;;;;;;4.94;58.78;96450.72;4871874;28;20197;-80
2023/12/08 00:37:32;;;;;;;5.53;3.90;;;;;;;4.94;59.34;96451.47;4900369;28;20294;-81
2023/12/08 00:39:58;;;;;;;6.75;4.00;;;;;;;4.91;59.09;96444.19;4868739;28;20179;-81
2023/12/08 00:42:23;;;;;;;7.32;4.50;;;;;;;4.88;58.57;96448.03;4885201;28;20189;-80
2023/12/08 00:44:49;;;;;;;6.28;4.00;;;;;;;4.93;58.74;96451.72;4905338;28;20189;-81
2023/12/08 00:47:15;;;;;;;6.50;4.00;;;;;;;4.93;59.60;96443.97;4905085;28;20244;-80
2023/12/08 00:49:40;;;;;;;7.90;4.25;;;;;;;4.95;59.43;96445.31;4900065;28;20209;-79
2023/12/08 00:52:06;;;;;;;6.20;3.92;;;;;;;4.96;59.50;96439.13;4924447;28;21123;-80
2023/12/08 00:54:31;;;;;;;7.47;3.92;;;;;;;5.00;58.90;96450.59;4888683;28;20205;-80
2023/12/08 00:56:56;;;;;;;6.18;3.78;;;;;;;4.97;59.72;96443.28;4889542;28;20671;-80
2023/12/08 00:59:22;;;;;;;5.63;3.85;;;;;;;4.86;59.33;96433.75;4904497;28;20711;-80
2023/12/08 01:01:47;;;;;;;7.25;4.30;;;;;;;4.93;59.74;96447.31;4887788;28;20279;-79
2023/12/08 01:04:13;;;;;;;6.60;4.00;;;;;;;4.90;59.31;96437.47;4905501;28;20326;-80
2023/12/08 01:06:38;;;;;;;6.50;4.00;;;;;;;4.91;59.49;96441.63;4918623;28;20506;-80
2023/12/08 01:09:04;;;;;;;6.28;3.85;;;;;;;4.84;59.60;96439.16;4904079;28;20167;-80
2023/12/08 01:11:30;;;;;;;7.03;3.83;;;;;;;4.88;58.89;96437.69;4886637;28;20658;-82
2023/12/08 01:13:55;;;;;;;6.72;4.57;;;;;;;4.82;60.67;96427.50;4905482;28;20260;-79
2023/12/08 01:16:21;;;;;;;5.82;3.70;;;;;;;4.85;60.61;96434.78;4903829;28;20639;-80
2023/12/08 01:18:46;;;;;;;6.68;4.00;;;;;;;4.80;60.30;96432.88;4896293;28;20493;-80
2023/12/08 01:21:11;;;;;;;6.43;4.05;;;;;;;4.82;59.43;96440.41;4874519;28;20186;-80
2023/12/08 01:23:37;;;;;;;6.07;4.05;;;;;;;4.84;59.47;96439.16;4924914;28;20022;-80
2023/12/08 01:26:06;;;;;;;5.15;3.75;;;;;;;4.91;60.39;96444.19;4919393;28;20640;-80
2023/12/08 01:28:31;;;;;;;6.30;4.00;;;;;;;4.92;60.38;96455.28;4918548;28;20252;-81
2023/12/08 01:30:57;;;;;;;5.88;4.03;;;;;;;4.86;59.77;96455.19;4896124;28;20283;-79
2023/12/08 01:33:22;;;;;;;6.60;4.43;;;;;;;4.92;60.14;96458.66;4908564;28;20303;-79
2023/12/08 01:35:47;;;;;;;6.60;5.13;;;;;;;4.93;60.40;96460.22;4911863;28;20659;-81
2023/12/08 01:38:13;;;;;;;7.00;4.35;;;;;;;4.95;60.00;96458.22;4910903;28;20205;-81
2023/12/08 01:40:40;;;;;;;7.03;4.65;;;;;;;4.95;60.61;96465.97;4911080;28;20247;-79
2023/12/08 01:43:10;;;;;;;6.43;4.93;;;;;;;5.07;59.94;96471.88;4912465;28;20198;-80
2023/12/08 01:45:35;;;;;;;8.40;4.95;;;;;;;4.97;60.72;96463.13;4905976;28;20281;-79
2023/12/08 01:48:01;;;;;;;6.10;4.57;;;;;;;4.94;60.28;96466.97;4905745;28;20789;-80
2023/12/08 01:50:26;;;;;;;7.63;4.82;;;;;;;4.96;61.50;96462.34;4893625;28;20615;-80
2023/12/08 01:52:52;;;;;;;7.40;4.65;;;;;;;5.00;61.00;96460.91;4905351;28;20300;-80
2023/12/08 01:55:17;;;;;;;11.88;5.05;;;;;;;4.94;60.81;96455.88;4908408;28;20743;-79
2023/12/08 01:57:43;;;;;;;7.47;5.10;;;;;;;5.00;60.53;96460.09;4880417;28;20364;-81
2023/12/08 02:00:09;;;;;;;8.55;5.07;;;;;;;4.96;60.26;96454.63;4886729;28;20201;-81
2023/12/08 02:02:35;;;;;;;8.23;5.45;;;;;;;4.94;60.45;96458.44;4873253;28;20401;-80
2023/12/08 02:05:02;;;;;;;8.05;5.38;;;;;;;4.95;60.59;96460.00;4902499;28;20652;-80
2023/12/08 02:07:28;;;;;;;7.80;4.72;;;;;;;4.94;60.74;96454.06;4885533;28;20280;-81
2023/12/08 02:09:53;;;;;;;6.43;4.57;;;;;;;4.98;61.08;96468.06;4887124;28;20199;-80
2023/12/08 02:12:18;;;;;;;8.18;5.65;;;;;;;4.96;60.66;96459.78;4939344;28;20303;-80
2023/12/08 02:14:48;;;;;;;6.15;4.28;;;;;;;5.04;61.52;96461.25;4889518;28;20411;-79
2023/12/08 02:17:20;;;;;;;7.13;5.00;;;;;;;5.07;60.80;96466.72;4874327;28;20577;-81
2023/12/08 02:19:47;;;;;;;7.40;5.00;;;;;;;5.00;61.77;96455.75;4885820;28;20201;-80
2023/12/08 02:22:12;;;;;;;6.78;4.50;;;;;;;5.07;61.03;96461.56;4919000;28;20446;-79
2023/12/08 02:24:37;;;;;;;6.65;4.57;;;;;;;5.02;61.52;96450.34;4909336;28;20542;-81
2023/12/08 02:27:03;;;;;;;8.90;5.30;;;;;;;5.01;61.20;96446.22;4875702;28;20109;-79
2023/12/08 02:29:29;;;;;;;6.05;4.93;;;;;;;5.02;61.73;96448.56;4894244;28;20713;-79
2023/12/08 02:32:48;;;;;;;7.63;4.30;;;;;;;5.19;60.38;96445.28;4899992;28;20374;-79
2023/12/08 02:35:16;;;;;;;7.32;4.53;;;;;;;5.12;61.76;96444.63;4850784;29;20249;-79
2023/12/08 02:37:45;;;;;;;6.53;5.00;;;;;;;5.15;60.52;96447.53;4844673;29;20278;-79
2023/12/08 02:40:10;;;;;;;7.70;4.22;;;;;;;5.11;60.69;96443.84;4834365;29;20261;-79
2023/12/08 02:42:36;;;;;;;6.80;4.20;;;;;;;5.12;61.58;96439.44;4833709;29;20325;-79
2023/12/08 02:45:03;;;;;;;6.65;4.55;;;;;;;5.14;60.51;96435.66;4849691;29;20338;-78
2023/12/08 02:47:29;;;;;;;6.13;4.28;;;;;;;5.13;61.11;96434.06;4835995;29;20741;-79
2023/12/08 02:49:54;;;;;;;6.85;4.22;;;;;;;5.15;61.54;96423.53;4835057;29;20292;-79
2023/12/08 02:52:19;;;;;;;5.95;3.58;;;;;;;5.15;61.94;96410.63;4842181;28;20209;-79
2023/12/08 02:54:45;;;;;;;6.63;3.60;;;;;;;5.15;62.09;96408.03;4867458;29;20196;-79
2023/12/08 02:57:10;;;;;;;5.15;3.05;;;;;;;5.15;62.50;96400.31;4850811;29;20624;-78
2023/12/08 02:59:36;;;;;;;5.40;3.28;;;;;;;5.19;62.26;96406.56;4845104;29;20278;-79
2023/12/08 03:02:01;;;;;;;5.20;3.40;;;;;;;5.19;62.25;96402.19;4846257;29;20382;-79
2023/12/08 03:04:26;;;;;;;5.43;3.60;;;;;;;5.17;62.81;96399.03;4850359;29;20207;-79
2023/12/08 03:06:52;;;;;;;6.10;3.33;;;;;;;5.22;63.02;96386.25;4851563;29;20395;-79
2023/12/08 03:09:17;;;;;;;5.38;3.08;;;;;;;5.26;62.83;96384.00;4886625;28;20201;-79
2023/12/08 03:11:42;;;;;;;5.80;3.13;;;;;;;5.24;63.68;96376.50;4924020;28;20306;-78
2023/12/08 03:14:08;;;;;;;5.03;2.90;;;;;;;5.26;63.06;96371.09;4903497;28;20188;-78
2023/12/08 03:16:33;;;;;;;4.57;3.15;;;;;;;5.30;63.24;96367.03;4922764;28;20186;-79
2023/12/08 03:18:59;;;;;;;6.22;3.38;;;;;;;5.29;63.95;96362.88;4876104;28;20219;-79
2023/12/08 03:21:24;;;;;;;6.07;3.67;;;;;;;5.32;63.49;96349.53;4895348;28;20441;-78
2023/12/08 03:23:50;;;;;;;5.25;3.95;;;;;;;5.30;63.31;96345.63;4899213;28;20288;-78
2023/12/08 03:26:17;;;;;;;6.05;3.55;;;;;;;5.31;63.15;96340.19;4890429;28;20117;-79
2023/12/08 03:28:42;;;;;;;5.85;3.70;;;;;;;5.30;63.95;96328.31;4900255;28;20658;-79
2023/12/08 03:31:29;;;;;;;6.25;3.80;;;;;;;5.33;63.75;96335.59;4900207;28;20300;-79
2023/12/08 03:33:54;;;;;;;6.20;4.00;;;;;;;5.37;63.44;96328.97;4906773;28;20294;-79
2023/12/08 03:36:20;;;;;;;5.22;4.20;;;;;;;5.39;63.07;96332.09;4887972;28;20280;-80
2023/12/08 03:38:45;;;;;;;5.72;3.63;;;;;;;5.42;63.00;96333.44;4895935;28;20643;-80
2023/12/08 03:41:14;;;;;;;5.30;3.70;;;;;;;5.42;64.09;96334.22;4890374;28;20213;-80
2023/12/08 03:43:40;;;;;;;6.32;3.53;;;;;;;5.43;64.07;96332.41;4898523;28;20683;-79
2023/12/08 03:46:06;;;;;;;6.32;4.15;;;;;;;5.45;63.55;96338.16;4891808;28;20257;-79
2023/12/08 03:48:31;;;;;;;4.95;3.10;;;;;;;5.43;64.25;96330.63;4890687;28;20707;-79
2023/12/08 03:50:57;;;;;;;4.20;3.03;;;;;;;5.41;64.70;96330.06;4923422;28;20331;-79
2023/12/08 03:53:23;;;;;;;5.15;3.50;;;;;;;5.48;65.21;96329.13;4910847;28;20215;-79
2023/12/08 03:55:48;;;;;;;4.55;2.97;;;;;;;5.61;64.82;96328.84;4871584;28;20179;-79
2023/12/08 03:58:14;;;;;;;5.53;2.80;;;;;;;5.62;64.47;96326.03;4914168;28;20190;-79
2023/12/08 04:00:39;;;;;;;5.10;2.97;;;;;;;5.72;65.10;96337.53;4906968;28;20215;-79
2023/12/08 04:03:05;;;;;;;5.53;2.88;;;;;;;5.75;64.67;96332.69;4889980;28;20213;-79
2023/12/08 04:05:30;;;;;;;6.30;3.10;;;;;;;5.75;64.23;96326.75;4890349;28;20198;-79
2023/12/08 04:07:55;;;;;;;6.43;3.42;;;;;;;5.79;65.03;96335.59;4912387;28;20667;-79
2023/12/08 04:10:21;;;;;;;6.13;3.53;;;;;;;5.82;64.94;96333.31;4917348;28;20318;-79
2023/12/08 04:12:46;;;;;;;4.57;3.28;;;;;;;5.78;65.65;96327.06;4899218;28;20293;-79
2023/12/08 04:15:11;;;;;;;5.88;3.42;;;;;;;5.80;65.27;96324.25;4874040;28;20201;-79
2023/12/08 04:17:37;;;;;;;5.68;3.55;;;;;;;5.88;66.19;96333.38;4893422;28;20640;-79
2023/12/08 04:20:02;;;;;;;5.15;3.22;;;;;;;5.88;65.91;96328.22;4889366;28;20764;-79
2023/12/08 04:22:28;;;;;;;4.78;3.42;;;;;;;5.90;65.29;96336.53;4874874;28;20681;-79
2023/12/08 04:24:53;;;;;;;6.70;4.20;;;;;;;5.89;65.63;96337.56;4874591;28;20209;-79
2023/12/08 04:27:18;;;;;;;6.85;3.92;;;;;;;5.95;66.00;96332.22;4893187;28;20671;-80
2023/12/08 04:29:44;;;;;;;6.15;3.35;;;;;;;5.98;66.01;96338.75;4906505;28;20565;-80
2023/12/08 04:32:09;;;;;;;5.43;3.60;;;;;;;6.05;64.96;96336.00;4887127;28;20138;-80
2023/12/08 04:34:35;;;;;;;4.40;2.90;;;;;;;5.95;66.12;96332.22;4889067;28;20789;-79
2023/12/08 04:37:00;;;;;;;5.60;3.17;;;;;;;6.04;65.86;96340.41;4888156;28;20342;-79
2023/12/08 04:39:26;;;;;;;4.65;3.22;;;;;;;6.03;65.67;96333.66;4880502;28;20328;-80
2023/12/08 04:41:51;;;;;;;5.90;3.47;;;;;;;6.02;65.48;96333.91;4904883;28;20198;-80
2023/12/08 04:44:16;;;;;;;5.13;2.55;;;;;;;6.11;66.24;96342.81;4873863;28;20565;-79
2023/12/08 04:46:43;;;;;;;5.13;3.15;;;;;;;5.98;65.17;96338.75;4922604;28;20175;-80
2023/12/08 04:49:08;;;;;;;5.55;3.17;;;;;;;6.07;66.14;96339.94;4906731;28;20209;-80
2023/12/08 04:51:35;;;;;;;5.35;2.97;;;;;;;6.08;65.44;96340.72;4895426;28;20159;-79
2023/12/08 04:54:01;;;;;;;4.25;2.72;;;;;;;5.99;66.29;96346.25;4889333;28;20205;-80
2023/12/08 04:56:26;;;;;;;4.53;2.90;;;;;;;5.97;65.22;96339.78;4881628;28;20104;-79
2023/12/08 04:58:52;;;;;;;5.18;2.80;;;;;;;6.00;66.06;96347.84;4888710;28;20229;-80
2023/12/08 05:01:17;;;;;;;4.65;2.83;;;;;;;5.95;64.82;96352.91;4905708;28;20272;-80
2023/12/08 05:03:43;;;;;;;5.07;3.03;;;;;;;5.93;64.96;96347.19;4921561;28;20239;-80
2023/12/08 05:06:08;;;;;;;5.35;3.40;;;;;;;6.07;65.01;96354.66;4918681;28;20202;-80
2023/12/08 05:08:34;;;;;;;5.82;3.58;;;;;;;6.09;65.52;96353.41;4899280;28;20181;-80
2023/12/08 05:10:59;;;;;;;5.90;3.55;;;;;;;5.83;65.96;96347.03;4897941;28;20210;-79
2023/12/08 05:13:25;;;;;;;5.65;3.40;;;;;;;5.98;65.44;96349.88;4884039;28;20230;-80
2023/12/08 05:15:50;;;;;;;6.43;3.50;;;;;;;5.95;65.72;96347.72;4905444;28;20707;-80
2023/12/08 05:18:16;;;;;;;6.22;3.72;;;;;;;5.98;65.41;96343.91;4907102;28;20239;-79
2023/12/08 05:20:42;;;;;;;6.78;3.97;;;;;;;5.94;65.25;96324.72;4904428;28;20222;-79
2023/12/08 05:23:07;;;;;;;6.57;4.47;;;;;;;5.84;65.60;96327.91;4877463;28;20291;-80
2023/12/08 05:25:34;;;;;;;7.22;4.70;;;;;;;5.88;65.20;96315.31;4858616;28;20211;-80
2023/12/08 05:27:59;;;;;;;7.60;4.53;;;;;;;5.98;66.27;96324.03;4904517;28;20171;-79
2023/12/08 05:30:25;;;;;;;7.07;4.30;;;;;;;5.97;65.71;96321.69;4884751;28;20536;-79
2023/12/08 05:32:50;;;;;;;7.43;4.80;;;;;;;6.02;66.42;96326.94;4887900;28;20666;-79
2023/12/08 05:35:16;;;;;;;8.60;5.03;;;;;;;6.01;66.04;96333.13;4880583;28;20301;-80
2023/12/08 05:37:41;;;;;;;7.82;5.03;;;;;;;5.99;66.13;96333.34;4890944;28;20171;-79
2023/12/08 05:40:07;;;;;;;7.50;4.95;;;;;;;5.99;65.61;96348.06;4904540;28;20186;-79
2023/12/08 05:42:33;;;;;;;7.68;5.07;;;;;;;6.03;65.50;96356.91;4889111;28;20246;-79
2023/12/08 05:44:59;;;;;;;9.75;5.75;;;;;;;5.85;66.13;96364.88;4891174;28;20309;-79
2023/12/08 05:47:24;;;;;;;10.43;6.32;;;;;;;5.81;65.48;96365.34;4879066;28;20189;-79
2023/12/08 05:49:50;;;;;;;10.25;6.65;;;;;;;5.79;66.20;96364.81;4888892;28;20257;-80
2023/12/08 05:52:15;;;;;;;11.07;6.00;;;;;;;5.80;65.63;96358.59;4914048;28;20673;-80
2023/12/08 05:54:40;;;;;;;11.13;7.30;;;;;;;5.88;65.12;96361.81;4909711;28;20194;-79
2023/12/08 05:57:06;;;;;;;12.65;6.68;;;;;;;5.97;65.09;96360.44;4909121;28;20243;-80
2023/12/08 05:59:31;;;;;;;12.85;7.47;;;;;;;5.92;65.29;96357.75;4892989;28;20546;-80
2023/12/08 06:01:57;;;;;;;12.38;7.43;;;;;;;5.93;66.50;96360.13;4891392;28;20582;-79
2023/12/08 06:04:22;;;;;;;12.80;7.90;;;;;;;5.88;66.10;96361.81;4877045;28;20307;-79
2023/12/08 06:06:48;;;;;;;12.43;7.43;;;;;;;5.86;65.51;96366.44;4903845;28;20756;-80
2023/12/08 06:09:13;;;;;;;13.45;8.20;;;;;;;5.91;66.25;96369.09;4924423;28;20197;-79
2023/12/08 06:11:39;;;;;;;13.98;7.60;;;;;;;6.02;65.68;96375.25;4875904;28;20265;-79
2023/12/08 06:14:06;;;;;;;13.95;7.85;;;;;;;5.98;64.84;96367.97;4897654;28;20436;-80
2023/12/08 06:16:32;;;;;;;12.88;8.45;;;;;;;5.99;64.74;96379.09;4889145;28;20176;-79
2023/12/08 06:18:57;;;;;;;15.88;7.97;;;;;;;5.92;65.40;96373.25;4882588;28;20212;-80
2023/12/08 06:21:22;;;;;;;13.98;8.68;;;;;;;5.91;65.89;96363.94;4886875;28;20661;-79
2023/12/08 06:23:48;;;;;;;15.38;8.10;;;;;;;5.93;65.96;96369.66;4919914;28;20399;-80
2023/12/08 06:26:13;;;;;;;16.95;9.40;;;;;;;5.95;65.34;96363.25;4875470;28;20573;-79
2023/12/08 06:28:39;;;;;;;16.88;9.00;;;;;;;6.03;66.06;96374.22;4923261;28;20193;-79
2023/12/08 06:31:04;;;;;;;14.82;8.95;;;;;;;5.99;65.91;96366.94;4891180;28;20251;-80
2023/12/08 06:33:29;;;;;;;17.63;9.38;;;;;;;5.92;65.70;96360.34;4891963;28;20668;-79
2023/12/08 06:35:55;;;;;;;16.27;9.63;;;;;;;6.02;66.62;96357.94;4907560;28;20827;-80
2023/12/08 06:38:21;;;;;;;17.83;10.10;;;;;;;6.02;65.71;96360.53;4905403;28;20081;-79
2023/12/08 06:40:46;;;;;;;16.55;9.45;;;;;;;5.93;66.41;96354.94;4875130;28;20378;-80
2023/12/08 06:43:11;;;;;;;16.80;9.70;;;;;;;5.95;66.84;96355.50;4892530;28;20193;-80
2023/12/08 06:45:37;;;;;;;16.17;9.27;;;;;;;5.96;66.51;96354.50;4890248;28;20057;-79
2023/12/08 06:48:04;;;;;;;17.52;10.68;;;;;;;5.87;66.59;96345.53;4891537;28;20221;-81
2023/12/08 06:50:30;;;;;;;16.98;10.35;;;;;;;5.94;66.51;96355.72;4899906;28;20228;-79
2023/12/08 06:52:55;;;;;;;18.42;10.25;;;;;;;5.87;67.02;96360.25;4884335;28;20554;-80
2023/12/08 06:55:22;;;;;;;16.75;10.13;;;;;;;6.04;67.26;96355.91;4923182;28;20398;-80
2023/12/08 06:57:48;;;;;;;14.60;9.38;;;;;;;6.03;66.54;96363.88;4905429;28;20294;-79
2023/12/08 07:00:14;;;;;;;17.20;10.15;;;;;;;6.04;67.11;96368.81;4892191;28;20346;-80
2023/12/08 07:02:39;;;;;;;15.48;9.75;;;;;;;6.11;67.23;96366.88;4903022;28;20328;-79
2023/12/08 07:05:05;;;;;;;17.20;9.73;;;;;;;6.23;66.26;96371.19;4892138;28;20287;-79
2023/12/08 07:07:31;;;;;;;16.58;8.98;;;;;;;6.25;66.12;96382.06;4898298;28;20120;-79
2023/12/08 07:09:56;;;;;;;17.02;10.05;;;;;;;6.21;66.30;96383.56;4910263;28;20623;-80
2023/12/08 07:12:21;;;;;;;17.88;9.95;;;;;;;6.23;66.39;96394.44;4906831;28;20243;-79
2023/12/08 07:14:50;;;;;;;17.55;10.50;;;;;;;6.28;66.04;96391.94;4892146;28;20615;-80
2023/12/08 07:17:16;;;;;;;17.27;9.10;;;;;;;6.23;66.53;96387.47;4916056;28;20201;-81
2023/12/08 07:19:41;;;;;;;15.73;9.90;;;;;;;6.26;66.68;96391.41;4912316;28;20210;-79
2023/12/08 07:22:07;;;;;;;18.17;10.07;;;;;;;6.24;66.94;96396.78;4892201;28;20707;-81
2023/12/08 07:24:32;;;;;;;16.25;9.88;;;;;;;6.35;66.80;96400.31;4903248;28;20718;-79
2023/12/08 07:26:58;;;;;;;16.10;9.73;;;;;;;6.32;67.05;96403.34;4876695;28;20288;-81
2023/12/08 07:29:23;;;;;;;17.27;10.80;;;;;;;6.45;66.64;96408.22;4889964;28;20323;-80
2023/12/08 07:31:49;;;;;;;18.52;10.23;;;;;;;6.41;66.82;96399.38;4891073;28;20698;-80
2023/12/08 07:34:14;;;;;;;16.80;9.63;;;;;;;6.28;68.06;96402.28;4914212;28;20284;-80
2023/12/08 07:36:40;;;;;;;16.10;9.48;;;;;;;6.39;66.81;96406.56;4915096;28;20664;-80
2023/12/08 07:39:07;;;;;;;17.50;9.40;;;;;;;6.37;66.94;96403.44;4896451;28;20268;-80
2023/12/08 07:41:32;;;;;;;17.70;9.20;;;;;;;6.33;67.19;96400.53;4880937;28;20350;-80
2023/12/08 07:43:57;;;;;;;13.68;8.77;;;;;;;6.40;66.91;96402.97;4921311;28;20307;-80
2023/12/08 07:46:27;;;;;;;17.98;9.43;;;;;;;6.46;67.56;96407.22;4872910;28;20196;-80
2023/12/08 07:48:52;;;;;;;15.10;8.48;;;;;;;6.47;66.52;96405.41;4903803;28;20587;-80
2023/12/08 07:51:18;;;;;;;15.27;9.65;;;;;;;6.52;66.82;96406.25;4909482;28;20287;-80
2023/12/08 07:53:43;;;;;;;13.45;8.48;;;;;;;6.57;67.95;96410.72;4905373;28;20280;-80
2023/12/08 07:56:09;;;;;;;14.82;8.55;;;;;;;6.62;66.42;96408.19;4874233;28;20581;-81
2023/12/08 07:58:34;;;;;;;13.45;8.15;;;;;;;6.62;68.02;96412.59;4907089;28;20299;-81
2023/12/08 08:01:00;;;;;;;13.23;8.30;;;;;;;6.67;67.69;96410.09;4906743;28;20382;-80
2023/12/08 08:03:26;;;;;;;15.65;8.70;;;;;;;6.57;67.81;96418.47;4900629;28;20200;-80
2023/12/08 08:05:51;;;;;;;14.45;8.20;;;;;;;6.58;67.55;96417.47;4880744;28;20410;-80
2023/12/08 08:08:17;;;;;;;13.07;7.55;;;;;;;6.70;67.27;96414.75;4902376;28;20261;-81
2023/12/08 08:10:43;;;;;;;14.40;8.40;;;;;;;6.62;67.28;96402.25;4886618;28;20186;-80
2023/12/08 08:13:08;;;;;;;14.77;8.52;;;;;;;6.84;67.11;96416.00;4905692;28;20688;-80
2023/12/08 08:15:34;;;;;;;13.98;8.13;;;;;;;6.75;67.41;96418.22;4923441;28;20221;-80
2023/12/08 08:17:59;;;;;;;13.80;7.72;;;;;;;6.84;66.53;96417.81;4922833;28;20281;-80
2023/12/08 08:20:24;;;;;;;13.25;7.97;;;;;;;6.85;67.38;96417.56;4890832;28;20556;-79
2023/12/08 08:22:51;;;;;;;16.83;8.98;;;;;;;6.84;68.12;96413.41;4896805;28;20209;-80
2023/12/08 08:25:16;;;;;;;15.10;8.65;;;;;;;6.88;67.75;96424.06;4924637;28;20455;-80
2023/12/08 08:27:42;;;;;;;12.77;8.15;;;;;;;6.82;67.29;96418.06;4897822;28;20072;-81
2023/12/08 08:30:07;;;;;;;15.32;8.38;;;;;;;7.05;66.47;96432.56;4875683;28;20193;-80
2023/12/08 08:32:33;;;;;;;13.88;8.10;;;;;;;7.07;66.74;96434.91;4906616;28;20197;-82
2023/12/08 08:34:58;;;;;;;14.30;8.15;;;;;;;6.86;67.01;96432.06;4890757;28;20624;-81
2023/12/08 08:37:24;;;;;;;15.65;8.18;;;;;;;6.93;67.80;96435.25;4902108;28;20265;-82
2023/12/08 08:39:50;;;;;;;12.30;7.43;;;;;;;6.86;67.08;96429.47;4904198;28;20588;-81
2023/12/08 08:42:16;;;;;;;13.40;7.60;;;;;;;6.99;68.17;96437.91;4908871;28;20201;-80
2023/12/08 08:44:41;;;;;;;13.95;8.02;;;;;;;7.07;68.12;96446.06;4914260;28;20197;-80
2023/12/08 08:47:07;;;;;;;12.10;6.93;;;;;;;7.21;68.08;96441.31;4871182;28;20290;-80
2023/12/08 08:49:33;;;;;;;12.85;7.10;;;;;;;7.20;68.54;96441.56;4907895;28;20579;-80
2023/12/08 08:51:59;;;;;;;12.05;7.22;;;;;;;7.23;67.58;96433.28;4906620;28;20236;-81
2023/12/08 08:54:25;;;;;;;12.38;6.75;;;;;;;7.19;68.04;96434.81;4910989;28;20303;-82
2023/12/08 08:56:50;;;;;;;13.30;7.28;;;;;;;7.14;67.72;96438.13;4895371;28;20631;-81
2023/12/08 08:59:16;;;;;;;13.38;7.03;;;;;;;7.28;68.30;96449.69;4903764;28;20197;-79
2023/12/08 09:01:42;;;;;;;13.77;6.75;;;;;;;7.29;68.97;96443.47;4890422;28;20171;-80
2023/12/08 09:04:07;;;;;;;14.43;7.63;;;;;;;7.26;67.80;96446.53;4905355;28;20269;-80
2023/12/08 09:06:33;;;;;;;12.88;7.25;;;;;;;7.42;67.66;96452.72;4918222;28;20300;-80
2023/12/08 09:08:58;;;;;;;12.27;6.55;;;;;;;7.42;68.30;96452.72;4893473;28;20619;-80
2023/12/08 09:11:24;;;;;;;11.80;6.70;;;;;;;7.42;68.07;96451.91;4925416;28;20251;-81
2023/12/08 09:13:49;;;;;;;12.05;6.90;;;;;;;7.57;67.31;96452.06;4892878;28;20341;-80
2023/12/08 09:16:15;;;;;;;12.38;7.43;;;;;;;7.50;68.69;96456.66;4917626;28;20220;-80
2023/12/08 09:18:40;;;;;;;17.40;6.97;;;;;;;7.50;67.58;96465.25;4888952;28;20119;-80
2023/12/08 09:21:05;;;;;;;15.50;7.43;;;;;;;7.44;68.81;96457.66;4923089;28;20643;-80
2023/12/08 09:23:31;;;;;;;12.80;7.13;;;;;;;7.67;68.19;96464.38;4880156;28;20671;-80
2023/12/08 09:25:56;;;;;;;12.27;6.85;;;;;;;7.61;68.08;96465.34;4881420;28;20195;-80
2023/12/08 09:28:21;;;;;;;11.68;7.05;;;;;;;7.73;68.39;96475.56;4906064;28;20636;-80
2023/12/08 09:30:47;;;;;;;13.07;6.78;;;;;;;7.61;67.97;96458.34;4876690;28;20660;-79
2023/12/08 09:33:13;;;;;;;13.88;6.43;;;;;;;7.71;67.53;96462.06;4903728;28;20074;-80
2023/12/08 09:35:38;;;;;;;10.50;6.25;;;;;;;7.73;67.64;96447.06;4906025;28;20431;-79
2023/12/08 09:38:04;;;;;;;11.02;6.22;;;;;;;7.87;67.89;96467.16;4923248;28;20623;-79
2023/12/08 09:40:31;;;;;;;13.85;6.40;;;;;;;7.88;67.33;96466.16;4880016;28;20034;-81
2023/12/08 09:42:58;;;;;;;12.32;6.68;;;;;;;7.92;68.63;96470.81;4893155;28;20085;-80
2023/12/08 09:45:24;;;;;;;12.40;7.50;;;;;;;7.87;68.11;96474.16;4921032;28;20198;-80
2023/12/08 09:47:52;;;;;;;13.25;6.72;;;;;;;7.94;67.72;96466.22;4905098;28;20214;-80
2023/12/08 09:50:18;;;;;;;12.45;6.40;;;;;;;8.03;67.43;96478.47;4889121;28;20703;-81
2023/12/08 09:52:46;;;;;;;14.70;6.85;;;;;;;7.88;68.66;96465.34;4872972;28;20295;-80
2023/12/08 09:55:12;;;;;;;11.50;6.30;;;;;;;8.11;67.83;96468.69;4875186;28;20080;-80
2023/12/08 09:57:40;;;;;;;13.07;6.70;;;;;;;8.18;68.11;96474.47;4924944;28;20418;-80
2023/12/08 10:00:10;;;;;;;13.40;7.00;;;;;;;8.06;68.18;96472.03;4924751;28;20294;-81
2023/12/08 10:02:35;;;;;;;12.63;6.72;;;;;;;8.05;68.24;96471.25;4893524;28;20235;-80
2023/12/08 10:05:01;;;;;;;13.82;6.90;;;;;;;8.10;67.95;96467.91;4909521;28;20596;-80
2023/12/08 10:07:31;;;;;;;10.93;6.47;;;;;;;8.24;68.46;96470.88;4892818;28;20200;-80
2023/12/08 10:09:58;;;;;;;12.40;7.43;;;;;;;8.34;67.82;96462.41;4885583;28;20643;-81
2023/12/08 10:12:23;;;;;;;11.40;6.95;;;;;;;8.20;68.23;96457.63;4918230;28;20337;-79
2023/12/08 10:14:54;;;;;;;12.77;6.82;;;;;;;8.37;67.76;96464.50;4903798;28;20276;-80
2023/12/08 10:17:20;;;;;;;10.77;6.22;;;;;;;8.33;67.50;96460.81;4875381;28;20210;-80
2023/12/08 10:19:46;;;;;;;12.60;6.50;;;;;;;8.31;68.29;96453.31;4893179;28;20212;-81
2023/12/08 10:22:11;;;;;;;11.65;6.38;;;;;;;8.39;68.54;96455.44;4908291;28;20396;-80
2023/12/08 10:24:36;;;;;;;11.27;6.60;;;;;;;8.45;67.98;96453.72;4908407;28;20618;-79
2023/12/08 10:27:02;;;;;;;12.35;6.28;;;;;;;8.46;67.49;96441.53;4914510;28;20185;-80
2023/12/08 10:29:31;;;;;;;11.48;6.30;;;;;;;8.51;68.78;96444.16;4906224;28;20178;-80
2023/12/08 10:31:57;;;;;;;11.45;6.40;;;;;;;8.54;68.16;96439.25;4920592;28;20531;-80
2023/12/08 10:34:23;;;;;;;11.77;6.57;;;;;;;8.43;68.42;96442.78;4908434;28;20216;-80
2023/12/08 10:36:49;;;;;;;9.77;6.63;;;;;;;8.34;68.98;96441.66;4910695;28;20197;-80
2023/12/08 10:39:16;;;;;;;9.35;5.93;;;;;;;8.42;69.09;96429.03;4924468;28;20572;-81
2023/12/08 10:41:41;;;;;;;9.68;5.85;;;;;;;8.56;68.44;96441.59;4915670;28;20099;-82
2023/12/08 10:44:08;;;;;;;10.02;6.07;;;;;;;8.66;68.64;96438.28;4905419;28;20229;-81
2023/12/08 10:46:35;;;;;;;9.48;5.60;;;;;;;8.61;68.45;96441.63;4923345;28;20300;-80
2023/12/08 10:49:01;;;;;;;11.23;6.75;;;;;;;8.71;67.82;96436.50;4876384;28;20205;-81
2023/12/08 10:51:26;;;;;;;11.15;6.43;;;;;;;8.76;68.88;96440.94;4911324;28;20180;-80
2023/12/08 10:53:52;;;;;;;9.77;5.95;;;;;;;8.87;68.10;96454.75;4898547;28;20225;-80
2023/12/08 10:56:19;;;;;;;7.45;5.15;;;;;;;8.88;68.44;96456.34;4910578;28;20221;-80
2023/12/08 10:58:45;;;;;;;9.95;5.72;;;;;;;8.85;67.45;96457.59;4900788;28;20204;-80
2023/12/08 11:01:13;;;;;;;8.18;5.30;;;;;;;8.69;68.68;96467.13;4915243;28;20213;-80
2023/12/08 11:03:42;;;;;;;8.77;5.47;;;;;;;8.81;68.73;96462.53;4910948;28;20208;-80
2023/12/08 11:06:22;;;;;;;9.13;5.80;;;;;;;8.96;67.62;96458.44;4925788;28;20602;-79
2023/12/08 11:08:54;;;;;;;10.07;5.68;;;;;;;8.93;68.44;96464.16;4920240;28;20612;-80
2023/12/08 11:11:21;;;;;;;9.90;6.22;;;;;;;8.93;68.86;96461.56;4923949;28;20248;-79
2023/12/08 11:13:48;;;;;;;13.68;9.07;;;;;;;9.00;67.88;96462.13;4891988;28;20223;-80
2023/12/08 11:16:33;;;;;;;13.18;8.32;;;;;;;9.13;67.97;96459.06;4901483;28;20220;-81
2023/12/08 11:18:59;;;;;;;12.13;8.15;;;;;;;8.99;68.10;96463.91;4927147;28;20169;-80
2023/12/08 11:21:26;;;;;;;12.55;7.20;;;;;;;9.01;67.76;96455.88;4911085;28;20196;-80
2023/12/08 11:23:51;;;;;;;12.40;7.38;;;;;;;9.07;68.28;96462.66;4894911;28;20581;-79
2023/12/08 11:26:39;;;;;;;12.93;8.20;;;;;;;9.22;67.97;96466.38;4893704;28;20205;-80
2023/12/08 11:29:13;;;;;;;13.00;7.28;;;;;;;9.11;68.00;96458.53;4921308;28;20259;-79
2023/12/08 11:31:43;;;;;;;12.43;8.30;;;;;;;9.21;67.68;96470.78;4896450;28;20813;-80